Time;durP1;ratioP1;P1;durP2;ratioP2;P2;SDS_P1;SDS_P2;PMS_P1;PMS_P2;Temp;Humidity;BMP_temperature;BMP_pressure;BME280_temperature;BME280_humidity;BME280_pressure;Samples;Min_cycle;Max_cycle;Signal;HPM_P1;HPM_P2
2022/09/29 00:01:53;;;;;;;8.57;7.77;;;;;;;;;;4992173;28;20187;-51
2022/09/29 00:04:19;;;;;;;10.07;7.80;;;;;;;;;;4987075;28;20189;-52
2022/09/29 00:06:45;;;;;;;7.90;7.20;;;;;;;;;;4988374;28;20214;-51
2022/09/29 00:09:14;;;;;;;8.43;7.63;;;;;;;;;;4987123;28;20183;-51
2022/09/29 00:11:41;;;;;;;8.87;7.97;;;;;;;;;;4993744;28;20677;-54
2022/09/29 00:14:07;;;;;;;8.77;7.53;;;;;;;;;;4992617;28;20270;-53
2022/09/29 00:16:33;;;;;;;9.07;8.17;;;;;;;;;;4991543;28;20182;-52
2022/09/29 00:19:00;;;;;;;8.27;7.47;;;;;;;;;;4990068;28;20375;-53
2022/09/29 00:21:26;;;;;;;10.73;8.13;;;;;;;;;;4974781;28;20179;-52
2022/09/29 00:23:52;;;;;;;8.63;7.83;;;;;;;;;;4994728;28;20637;-53
2022/09/29 00:26:21;;;;;;;9.07;8.17;;;;;;;;;;4990753;28;20750;-52
2022/09/29 00:28:55;;;;;;;8.57;7.77;;;;;;;;;;4987637;28;20203;-54
2022/09/29 00:31:22;;;;;;;9.10;7.90;;;;;;;;;;4994834;28;20182;-52
2022/09/29 00:33:49;;;;;;;10.60;8.17;;;;;;;;;;4989997;28;20183;-52
2022/09/29 00:36:16;;;;;;;8.53;7.73;;;;;;;;;;4993929;28;20642;-53
2022/09/29 00:38:43;;;;;;;10.90;8.13;;;;;;;;;;4992199;28;20290;-53
2022/09/29 00:41:23;;;;;;;11.83;8.43;;;;;;;;;;4990770;28;20245;-52
2022/09/29 00:43:51;;;;;;;9.03;7.50;;;;;;;;;;4987510;28;20536;-51
2022/09/29 00:46:22;;;;;;;10.17;8.17;;;;;;;;;;4993055;28;20265;-52
2022/09/29 00:48:49;;;;;;;8.83;7.97;;;;;;;;;;4985904;28;20199;-56
2022/09/29 00:51:16;;;;;;;10.53;7.83;;;;;;;;;;4988493;28;20695;-51
2022/09/29 00:53:43;;;;;;;8.10;7.30;;;;;;;;;;4994654;28;20178;-52
2022/09/29 00:56:12;;;;;;;8.43;7.63;;;;;;;;;;4986848;28;20193;-52
2022/09/29 00:58:53;;;;;;;7.87;6.50;;;;;;;;;;4991994;28;20191;-52
2022/09/29 01:01:19;;;;;;;9.57;7.47;;;;;;;;;;4993102;28;20190;-52
2022/09/29 01:03:46;;;;;;;8.10;7.30;;;;;;;;;;4983030;28;20195;-52
2022/09/29 01:06:15;;;;;;;7.77;7.00;;;;;;;;;;4988403;28;20183;-53
2022/09/29 01:08:41;;;;;;;7.93;7.23;;;;;;;;;;4989193;28;20286;-52
2022/09/29 01:11:09;;;;;;;11.17;8.30;;;;;;;;;;4985730;28;20226;-54
2022/09/29 01:13:35;;;;;;;10.50;7.80;;;;;;;;;;4987097;28;20218;-53
2022/09/29 01:16:02;;;;;;;9.03;8.13;;;;;;;;;;4988397;28;20181;-52
2022/09/29 01:18:28;;;;;;;8.63;7.07;;;;;;;;;;4988514;28;20615;-51
2022/09/29 01:21:04;;;;;;;8.70;7.90;;;;;;;;;;4987650;28;20553;-51
2022/09/29 01:23:36;;;;;;;7.67;6.87;;;;;;;;;;4988432;28;20178;-51
2022/09/29 01:26:05;;;;;;;8.63;7.73;;;;;;;;;;4988454;28;20236;-51
2022/09/29 01:28:31;;;;;;;7.57;6.87;;;;;;;;;;4988385;28;20565;-52
2022/09/29 01:31:08;;;;;;;8.17;7.37;;;;;;;;;;4988026;28;20167;-52
2022/09/29 01:33:42;;;;;;;8.50;7.70;;;;;;;;;;4987329;28;20171;-51
2022/09/29 01:36:08;;;;;;;9.47;7.23;;;;;;;;;;4990206;28;20705;-52
2022/09/29 01:38:42;;;;;;;8.50;7.70;;;;;;;;;;4985829;28;20269;-51
2022/09/29 01:41:21;;;;;;;8.43;7.63;;;;;;;;;;4986452;28;20206;-52
2022/09/29 01:43:57;;;;;;;9.37;7.67;;;;;;;;;;4988481;28;20169;-52
2022/09/29 01:46:26;;;;;;;7.80;7.10;;;;;;;;;;4985942;28;20533;-52
2022/09/29 01:48:54;;;;;;;8.37;7.57;;;;;;;;;;4985804;28;20214;-53
2022/09/29 01:51:32;;;;;;;8.60;7.23;;;;;;;;;;4986098;28;20596;-51
2022/09/29 01:54:02;;;;;;;6.33;5.73;;;;;;;;;;4988861;28;20684;-52
2022/09/29 01:56:32;;;;;;;7.10;6.43;;;;;;;;;;4981292;28;20183;-52
2022/09/29 01:59:19;;;;;;;7.33;6.63;;;;;;;;;;4984996;28;20311;-52
2022/09/29 02:01:46;;;;;;;7.63;6.87;;;;;;;;;;4987065;28;20193;-52
2022/09/29 02:04:21;;;;;;;6.87;6.27;;;;;;;;;;4994839;28;20187;-51
2022/09/29 02:06:51;;;;;;;7.00;6.30;;;;;;;;;;4985563;28;20182;-52
2022/09/29 02:09:30;;;;;;;7.10;6.37;;;;;;;;;;4986888;28;20531;-51
2022/09/29 02:12:03;;;;;;;7.80;6.27;;;;;;;;;;4986865;28;20322;-53
2022/09/29 02:14:32;;;;;;;7.17;6.47;;;;;;;;;;4985346;28;20183;-52
2022/09/29 02:17:05;;;;;;;7.57;5.93;;;;;;;;;;4985575;28;20198;-52
2022/09/29 02:19:33;;;;;;;6.73;6.13;;;;;;;;;;4990587;28;20518;-51
2022/09/29 02:21:59;;;;;;;6.60;5.70;;;;;;;;;;4989927;28;20793;-52
2022/09/29 02:24:25;;;;;;;7.10;6.43;;;;;;;;;;4987791;28;20190;-53
2022/09/29 02:26:52;;;;;;;6.50;6.00;;;;;;;;;;4990807;28;20179;-53
2022/09/29 02:29:18;;;;;;;7.20;6.50;;;;;;;;;;4987874;28;20650;-51
2022/09/29 02:31:45;;;;;;;7.07;6.37;;;;;;;;;;4989474;28;20669;-52
2022/09/29 02:34:12;;;;;;;6.77;6.10;;;;;;;;;;4990298;28;20227;-51
2022/09/29 02:36:39;;;;;;;7.53;6.70;;;;;;;;;;4989166;28;20779;-51
2022/09/29 02:39:17;;;;;;;7.23;6.37;;;;;;;;;;4991499;28;20180;-52
2022/09/29 02:41:43;;;;;;;6.80;6.17;;;;;;;;;;4995219;28;20243;-51
2022/09/29 02:44:15;;;;;;;6.73;6.13;;;;;;;;;;4994815;28;20720;-52
2022/09/29 02:46:47;;;;;;;7.20;6.60;;;;;;;;;;4998624;28;20180;-51
2022/09/29 02:49:33;;;;;;;7.87;7.13;;;;;;;;;;4988239;28;20210;-51
2022/09/29 02:52:19;;;;;;;8.17;7.37;;;;;;;;;;4984984;28;20190;-51
2022/09/29 02:54:54;;;;;;;9.03;7.50;;;;;;;;;;5004108;28;20187;-53
2022/09/29 02:57:20;;;;;;;8.03;7.30;;;;;;;;;;4989352;28;20657;-51
2022/09/29 02:59:57;;;;;;;8.33;7.53;;;;;;;;;;4995865;28;20182;-51
2022/09/29 03:02:24;;;;;;;9.03;8.13;;;;;;;;;;4990377;28;20195;-52
2022/09/29 03:04:51;;;;;;;8.13;7.33;;;;;;;;;;4989935;28;20254;-51
2022/09/29 03:07:17;;;;;;;8.17;7.27;;;;;;;;;;4998496;28;20273;-52
2022/09/29 03:09:43;;;;;;;7.00;6.40;;;;;;;;;;5003049;28;20225;-52
2022/09/29 03:12:09;;;;;;;7.23;6.53;;;;;;;;;;4997993;28;20217;-52
2022/09/29 03:14:36;;;;;;;8.23;7.33;;;;;;;;;;4988489;28;20701;-51
2022/09/29 03:17:02;;;;;;;10.07;9.27;;;;;;;;;;4988271;28;20191;-52
2022/09/29 03:19:28;;;;;;;8.07;5.80;;;;;;;;;;4995557;28;20242;-52
2022/09/29 03:21:54;;;;;;;7.70;7.00;;;;;;;;;;4988972;28;20241;-52
2022/09/29 03:24:21;;;;;;;7.47;6.67;;;;;;;;;;4995109;28;20649;-52
2022/09/29 03:26:47;;;;;;;7.40;6.70;;;;;;;;;;4989830;28;20580;-51
2022/09/29 03:29:13;;;;;;;8.13;7.33;;;;;;;;;;4993259;28;20220;-52
2022/09/29 03:31:46;;;;;;;12.20;11.30;;;;;;;;;;4989223;28;20210;-53
2022/09/29 03:34:12;;;;;;;8.43;7.53;;;;;;;;;;5002963;28;20179;-52
2022/09/29 03:36:40;;;;;;;8.10;7.27;;;;;;;;;;4990473;28;20225;-52
2022/09/29 03:39:06;;;;;;;8.20;7.50;;;;;;;;;;4987943;28;20208;-52
2022/09/29 03:41:32;;;;;;;9.10;7.87;;;;;;;;;;4991247;28;20179;-53
2022/09/29 03:43:58;;;;;;;7.07;6.37;;;;;;;;;;4985399;28;20194;-52
2022/09/29 03:46:24;;;;;;;8.13;7.33;;;;;;;;;;4990383;28;20192;-52
2022/09/29 03:48:50;;;;;;;7.97;7.20;;;;;;;;;;4991560;28;20214;-51
2022/09/29 03:51:16;;;;;;;8.13;7.33;;;;;;;;;;4990735;28;20187;-52
2022/09/29 03:53:42;;;;;;;8.37;7.47;;;;;;;;;;4991813;28;20508;-51
2022/09/29 03:56:08;;;;;;;7.43;6.83;;;;;;;;;;4990187;28;20229;-52
2022/09/29 03:58:34;;;;;;;7.60;6.80;;;;;;;;;;4990578;28;20658;-51
2022/09/29 04:01:01;;;;;;;6.77;6.17;;;;;;;;;;4993652;28;20204;-52
2022/09/29 04:03:27;;;;;;;6.50;5.70;;;;;;;;;;4993266;28;20183;-51
2022/09/29 04:05:53;;;;;;;6.43;5.83;;;;;;;;;;4992201;28;20187;-52
2022/09/29 04:08:19;;;;;;;7.07;6.33;;;;;;;;;;4997488;28;20207;-51
2022/09/29 04:10:46;;;;;;;7.50;6.80;;;;;;;;;;4991356;28;20194;-51
2022/09/29 04:13:12;;;;;;;7.53;6.30;;;;;;;;;;4989167;28;20179;-52
2022/09/29 04:15:39;;;;;;;6.97;6.13;;;;;;;;;;4989637;28;20194;-52
2022/09/29 04:18:05;;;;;;;9.50;5.97;;;;;;;;;;4988641;28;20234;-51
2022/09/29 04:20:32;;;;;;;9.07;6.67;;;;;;;;;;4987844;28;20197;-52
2022/09/29 04:22:59;;;;;;;7.57;6.43;;;;;;;;;;4990798;28;20658;-50
2022/09/29 04:25:26;;;;;;;7.30;6.60;;;;;;;;;;4986761;28;20531;-53
2022/09/29 04:27:53;;;;;;;8.90;6.27;;;;;;;;;;4988531;28;20696;-52
2022/09/29 04:30:19;;;;;;;7.00;6.30;;;;;;;;;;4987311;28;20186;-53
2022/09/29 04:32:45;;;;;;;7.37;6.63;;;;;;;;;;4991260;28;20201;-51
2022/09/29 04:35:11;;;;;;;6.43;5.83;;;;;;;;;;4991043;28;20222;-51
2022/09/29 04:37:37;;;;;;;7.17;6.47;;;;;;;;;;4993140;28;20199;-52
2022/09/29 04:40:04;;;;;;;8.37;6.53;;;;;;;;;;4982683;28;20198;-52
2022/09/29 04:42:30;;;;;;;6.40;5.80;;;;;;;;;;4989161;28;20187;-52
2022/09/29 04:44:56;;;;;;;6.97;5.80;;;;;;;;;;4986723;28;20175;-51
2022/09/29 04:47:22;;;;;;;6.93;5.80;;;;;;;;;;4991269;28;20222;-52
2022/09/29 04:49:48;;;;;;;8.80;5.63;;;;;;;;;;4982820;28;20191;-52
2022/09/29 04:52:14;;;;;;;6.73;6.13;;;;;;;;;;5008818;28;20638;-52
2022/09/29 04:54:41;;;;;;;6.40;5.83;;;;;;;;;;5001661;28;20171;-52
2022/09/29 04:57:07;;;;;;;9.73;6.20;;;;;;;;;;4999301;28;20561;-52
2022/09/29 04:59:33;;;;;;;6.37;5.77;;;;;;;;;;4980102;28;20201;-51
2022/09/29 05:01:59;;;;;;;6.70;6.03;;;;;;;;;;5007155;28;20181;-53
2022/09/29 05:04:25;;;;;;;6.67;6.00;;;;;;;;;;4975291;28;20271;-51
2022/09/29 05:06:51;;;;;;;6.80;6.20;;;;;;;;;;4991187;28;20585;-51
2022/09/29 05:09:17;;;;;;;10.43;7.07;;;;;;;;;;4986044;28;20558;-52
2022/09/29 05:11:43;;;;;;;9.07;6.03;;;;;;;;;;4988529;28;20579;-51
2022/09/29 05:14:10;;;;;;;6.47;5.47;;;;;;;;;;4989156;28;20202;-52
2022/09/29 05:16:36;;;;;;;6.37;5.77;;;;;;;;;;4995681;28;20164;-51
2022/09/29 05:19:02;;;;;;;5.80;5.30;;;;;;;;;;4993536;28;20757;-52
2022/09/29 05:21:28;;;;;;;6.37;5.67;;;;;;;;;;4993977;28;20512;-52
2022/09/29 05:23:55;;;;;;;7.67;5.77;;;;;;;;;;4988462;28;20175;-52
2022/09/29 05:26:21;;;;;;;6.53;5.83;;;;;;;;;;4995381;28;20178;-52
2022/09/29 05:28:47;;;;;;;7.83;6.17;;;;;;;;;;4990042;28;20260;-51
2022/09/29 05:31:21;;;;;;;7.27;6.67;;;;;;;;;;5007887;28;20640;-52
2022/09/29 05:33:47;;;;;;;5.67;5.17;;;;;;;;;;4998201;28;20191;-52
2022/09/29 05:36:20;;;;;;;6.60;6.00;;;;;;;;;;4994994;28;20223;-52
2022/09/29 05:38:46;;;;;;;6.67;6.07;;;;;;;;;;4978799;28;20298;-52
2022/09/29 05:41:12;;;;;;;6.37;5.77;;;;;;;;;;4988263;28;20171;-51
2022/09/29 05:43:39;;;;;;;6.53;5.93;;;;;;;;;;4987708;28;20167;-52
2022/09/29 05:46:07;;;;;;;6.13;5.40;;;;;;;;;;4987850;28;20187;-51
2022/09/29 05:48:33;;;;;;;6.10;5.50;;;;;;;;;;4985772;28;20205;-52
2022/09/29 05:51:00;;;;;;;7.63;5.73;;;;;;;;;;4988308;28;20653;-52
2022/09/29 05:53:26;;;;;;;7.30;6.60;;;;;;;;;;4988217;28;20589;-52
2022/09/29 05:55:53;;;;;;;7.03;6.37;;;;;;;;;;4987307;28;20206;-51
2022/09/29 05:58:19;;;;;;;7.70;5.97;;;;;;;;;;4969513;28;20242;-51
2022/09/29 06:00:45;;;;;;;7.23;6.53;;;;;;;;;;4988186;28;20347;-52
2022/09/29 06:03:11;;;;;;;6.73;6.07;;;;;;;;;;4986405;28;20189;-52
2022/09/29 06:05:38;;;;;;;7.17;6.57;;;;;;;;;;4988567;28;20194;-52
2022/09/29 06:08:05;;;;;;;6.30;5.70;;;;;;;;;;4986685;28;20477;-52
2022/09/29 06:10:31;;;;;;;6.27;5.53;;;;;;;;;;4988764;28;20283;-52
2022/09/29 06:12:58;;;;;;;6.13;5.60;;;;;;;;;;4976464;28;20637;-52
2022/09/29 06:15:24;;;;;;;7.33;6.60;;;;;;;;;;4985870;28;20210;-52
2022/09/29 06:17:57;;;;;;;7.90;6.47;;;;;;;;;;4986852;28;20241;-52
2022/09/29 06:20:23;;;;;;;7.00;6.40;;;;;;;;;;5000186;28;20181;-52
2022/09/29 06:22:50;;;;;;;7.40;6.60;;;;;;;;;;5001757;28;20178;-52
2022/09/29 06:25:16;;;;;;;7.87;7.07;;;;;;;;;;4995510;28;20585;-53
2022/09/29 06:27:43;;;;;;;8.13;7.30;;;;;;;;;;4987796;28;20281;-52
2022/09/29 06:30:09;;;;;;;8.10;7.23;;;;;;;;;;4962229;28;20310;-53
2022/09/29 06:32:36;;;;;;;7.77;7.07;;;;;;;;;;4981495;28;20218;-52
2022/09/29 06:37:55;;;;;;;7.90;7.10;;;;;;;;;;4966163;28;20761;-53
2022/09/29 06:40:22;;;;;;;9.10;8.20;;;;;;;;;;4982492;28;20290;-53
2022/09/29 06:42:48;;;;;;;10.30;7.17;;;;;;;;;;5003858;28;20174;-52
2022/09/29 06:45:18;;;;;;;8.17;7.37;;;;;;;;;;5003274;28;20615;-56
2022/09/29 06:47:44;;;;;;;8.20;7.40;;;;;;;;;;4995257;28;20218;-54
2022/09/29 06:50:11;;;;;;;8.53;7.67;;;;;;;;;;4998146;28;20185;-53
2022/09/29 06:52:37;;;;;;;10.80;8.53;;;;;;;;;;4983772;28;20219;-53
2022/09/29 06:55:03;;;;;;;10.40;8.43;;;;;;;;;;4981961;28;20451;-52
2022/09/29 06:57:29;;;;;;;12.03;9.10;;;;;;;;;;4983669;28;20199;-53
2022/09/29 06:59:56;;;;;;;9.90;8.90;;;;;;;;;;4975250;28;20552;-53
2022/09/29 07:02:22;;;;;;;10.00;8.63;;;;;;;;;;4974410;28;20273;-53
2022/09/29 07:04:48;;;;;;;10.23;8.00;;;;;;;;;;4983134;28;20190;-53
2022/09/29 07:07:14;;;;;;;10.57;9.47;;;;;;;;;;4985625;28;20194;-54
2022/09/29 07:09:41;;;;;;;9.97;8.97;;;;;;;;;;4982155;28;20180;-53
2022/09/29 07:12:07;;;;;;;10.70;9.60;;;;;;;;;;4983640;28;20171;-53
2022/09/29 07:14:33;;;;;;;11.23;10.13;;;;;;;;;;5004948;28;20194;-52
2022/09/29 07:17:00;;;;;;;11.20;9.47;;;;;;;;;;5008800;28;20652;-53
2022/09/29 07:19:26;;;;;;;11.73;10.00;;;;;;;;;;5004977;28;20167;-53
2022/09/29 07:21:52;;;;;;;11.30;10.10;;;;;;;;;;5007700;28;20637;-54
2022/09/29 07:24:19;;;;;;;10.53;9.40;;;;;;;;;;5006413;28;20725;-53
2022/09/29 07:26:45;;;;;;;11.90;9.73;;;;;;;;;;5008168;28;20182;-53
2022/09/29 07:29:11;;;;;;;11.73;9.93;;;;;;;;;;4996354;28;20576;-53
2022/09/29 07:31:39;;;;;;;11.30;10.20;;;;;;;;;;4992714;28;20509;-53
2022/09/29 07:34:05;;;;;;;11.07;9.97;;;;;;;;;;4977567;28;20310;-54
2022/09/29 07:36:32;;;;;;;11.20;9.93;;;;;;;;;;5000634;28;20687;-52
2022/09/29 07:38:58;;;;;;;14.10;10.40;;;;;;;;;;5002602;28;20572;-53
2022/09/29 07:41:24;;;;;;;11.70;9.97;;;;;;;;;;4993639;28;20172;-53
2022/09/29 07:43:52;;;;;;;12.97;10.07;;;;;;;;;;4982505;28;20611;-52
2022/09/29 07:46:18;;;;;;;34.17;11.53;;;;;;;;;;4992233;28;20179;-53
2022/09/29 07:48:44;;;;;;;10.97;9.97;;;;;;;;;;4989272;28;20210;-52
2022/09/29 07:51:12;;;;;;;13.77;10.70;;;;;;;;;;4989436;28;20183;-52
2022/09/29 07:53:39;;;;;;;13.13;11.57;;;;;;;;;;4990334;28;20175;-52
2022/09/29 07:56:12;;;;;;;13.20;11.70;;;;;;;;;;4989141;28;20172;-53
2022/09/29 07:58:39;;;;;;;14.30;11.83;;;;;;;;;;4971756;28;20187;-52
2022/09/29 08:01:09;;;;;;;13.47;10.97;;;;;;;;;;4990562;28;20183;-52
2022/09/29 08:03:36;;;;;;;15.47;12.37;;;;;;;;;;4997132;28;20194;-53
2022/09/29 08:06:02;;;;;;;14.67;11.93;;;;;;;;;;4990948;28;20184;-52
2022/09/29 08:08:29;;;;;;;16.63;13.37;;;;;;;;;;4988398;28;20213;-51
2022/09/29 08:11:03;;;;;;;14.90;12.17;;;;;;;;;;4989120;28;20269;-53
2022/09/29 08:13:31;;;;;;;13.97;12.63;;;;;;;;;;4989326;28;20604;-51
2022/09/29 08:15:58;;;;;;;15.03;11.63;;;;;;;;;;4989837;28;20354;-52
2022/09/29 08:18:24;;;;;;;15.07;12.33;;;;;;;;;;4988296;28;20198;-52
2022/09/29 08:20:52;;;;;;;13.67;12.27;;;;;;;;;;4989810;28;20218;-52
2022/09/29 08:23:19;;;;;;;14.43;11.60;;;;;;;;;;4990455;28;20162;-51
2022/09/29 08:25:45;;;;;;;13.37;11.97;;;;;;;;;;4988922;28;20214;-52
2022/09/29 08:28:12;;;;;;;11.70;10.50;;;;;;;;;;4983445;28;20206;-51
2022/09/29 08:30:38;;;;;;;11.03;9.93;;;;;;;;;;4994359;28;20179;-51
2022/09/29 08:33:07;;;;;;;9.67;8.77;;;;;;;;;;4988232;28;20597;-53
2022/09/29 08:35:33;;;;;;;8.67;7.83;;;;;;;;;;4990228;28;20229;-53
2022/09/29 08:37:59;;;;;;;6.70;6.10;;;;;;;;;;4989592;28;20195;-51
2022/09/29 08:40:30;;;;;;;8.57;6.10;;;;;;;;;;4990214;28;20649;-52
2022/09/29 08:43:06;;;;;;;8.63;6.47;;;;;;;;;;4987866;28;20494;-51
2022/09/29 08:45:35;;;;;;;7.03;6.33;;;;;;;;;;5003489;28;20178;-51
2022/09/29 08:48:10;;;;;;;6.97;6.37;;;;;;;;;;4988040;28;20251;-51
2022/09/29 08:50:56;;;;;;;6.07;5.53;;;;;;;;;;4987417;28;20183;-52
2022/09/29 08:53:24;;;;;;;6.87;6.23;;;;;;;;;;4976008;28;20661;-51
2022/09/29 08:55:56;;;;;;;7.03;6.43;;;;;;;;;;4987825;28;20381;-52
2022/09/29 08:58:23;;;;;;;6.80;6.20;;;;;;;;;;4989075;28;20190;-51
2022/09/29 09:00:55;;;;;;;8.77;6.20;;;;;;;;;;4989615;28;20563;-54
2022/09/29 09:03:28;;;;;;;7.07;6.37;;;;;;;;;;4988046;28;20179;-54
2022/09/29 09:06:07;;;;;;;7.77;6.37;;;;;;;;;;4987420;28;20380;-52
2022/09/29 09:08:52;;;;;;;7.67;6.87;;;;;;;;;;4987941;28;20871;-52
2022/09/29 09:11:30;;;;;;;7.17;6.47;;;;;;;;;;4986923;28;20182;-51
2022/09/29 09:14:06;;;;;;;8.13;7.33;;;;;;;;;;4988418;28;20178;-51
2022/09/29 09:16:42;;;;;;;8.00;7.30;;;;;;;;;;4988107;28;20664;-52
2022/09/29 09:19:27;;;;;;;8.10;7.20;;;;;;;;;;4986011;28;20194;-52
2022/09/29 09:22:12;;;;;;;7.37;6.67;;;;;;;;;;4988973;28;20176;-51
2022/09/29 09:24:45;;;;;;;7.30;6.67;;;;;;;;;;5000439;28;20214;-51
2022/09/29 09:27:13;;;;;;;7.70;7.00;;;;;;;;;;5008170;28;20181;-53
2022/09/29 09:29:42;;;;;;;7.33;6.73;;;;;;;;;;5000015;28;20217;-52
2022/09/29 09:32:25;;;;;;;9.57;7.07;;;;;;;;;;4987875;28;20175;-52
2022/09/29 09:35:01;;;;;;;8.03;7.00;;;;;;;;;;4987806;28;20737;-52
2022/09/29 09:37:27;;;;;;;8.50;6.93;;;;;;;;;;4988271;28;20265;-52
2022/09/29 09:39:59;;;;;;;9.53;7.50;;;;;;;;;;4988008;28;20210;-52
2022/09/29 09:42:27;;;;;;;7.67;6.87;;;;;;;;;;4986800;28;20175;-53
2022/09/29 09:45:13;;;;;;;7.63;6.93;;;;;;;;;;4988549;28;20163;-51
2022/09/29 09:47:48;;;;;;;8.67;7.80;;;;;;;;;;4987633;28;20293;-53
2022/09/29 09:50:16;;;;;;;8.17;7.37;;;;;;;;;;4987982;28;20256;-53
2022/09/29 09:52:45;;;;;;;10.47;7.77;;;;;;;;;;4988297;28;20559;-52
2022/09/29 09:55:19;;;;;;;9.17;8.03;;;;;;;;;;4985677;28;20454;-53
2022/09/29 09:58:04;;;;;;;10.60;7.93;;;;;;;;;;4986061;28;20325;-53
2022/09/29 10:00:50;;;;;;;8.30;7.37;;;;;;;;;;4985476;28;20708;-52
2022/09/29 10:03:16;;;;;;;8.53;7.73;;;;;;;;;;4999135;28;20522;-53
2022/09/29 10:05:44;;;;;;;8.23;7.27;;;;;;;;;;4992101;28;20210;-53
2022/09/29 10:08:29;;;;;;;8.93;8.03;;;;;;;;;;4986495;28;20662;-52
2022/09/29 10:10:56;;;;;;;8.30;7.50;;;;;;;;;;4986828;28;20187;-52
2022/09/29 10:13:24;;;;;;;9.23;8.30;;;;;;;;;;4988343;28;20171;-53
2022/09/29 10:15:53;;;;;;;7.70;7.00;;;;;;;;;;4987477;28;20171;-52
2022/09/29 10:18:28;;;;;;;9.97;7.73;;;;;;;;;;4985544;28;20179;-52
2022/09/29 10:20:55;;;;;;;8.83;7.73;;;;;;;;;;4983359;28;20217;-53
2022/09/29 10:23:34;;;;;;;8.00;7.20;;;;;;;;;;4985801;28;20186;-53
2022/09/29 10:26:33;;;;;;;8.10;7.23;;;;;;;;;;4984938;28;20245;-52
2022/09/29 10:29:23;;;;;;;7.83;6.93;;;;;;;;;;4956078;28;20361;-54
2022/09/29 10:32:04;;;;;;;8.80;6.60;;;;;;;;;;4955122;28;20196;-52
2022/09/29 10:34:32;;;;;;;8.33;6.47;;;;;;;;;;4976044;28;20688;-53
2022/09/29 10:37:00;;;;;;;7.27;6.57;;;;;;;;;;4987811;28;20597;-53
2022/09/29 10:39:42;;;;;;;6.77;6.13;;;;;;;;;;4991967;28;20175;-53
2022/09/29 10:42:32;;;;;;;6.30;5.47;;;;;;;;;;4989485;28;20266;-53
2022/09/29 10:45:12;;;;;;;7.77;6.03;;;;;;;;;;4999908;28;20184;-53
2022/09/29 10:47:38;;;;;;;7.77;6.30;;;;;;;;;;4984054;28;20443;-54
2022/09/29 10:50:11;;;;;;;9.00;5.83;;;;;;;;;;4982410;28;20190;-53
2022/09/29 10:52:41;;;;;;;9.40;6.03;;;;;;;;;;4995285;28;20171;-53
2022/09/29 10:55:15;;;;;;;5.37;4.87;;;;;;;;;;4996278;28;20171;-54
2022/09/29 10:57:42;;;;;;;8.90;5.53;;;;;;;;;;4998842;28;20176;-52
2022/09/29 11:00:25;;;;;;;4.80;4.40;;;;;;;;;;4988909;28;20187;-54
2022/09/29 11:02:52;;;;;;;5.90;4.90;;;;;;;;;;4980530;28;20278;-54
2022/09/29 11:05:22;;;;;;;6.13;4.20;;;;;;;;;;4995834;28;20183;-54
2022/09/29 11:07:49;;;;;;;5.10;4.60;;;;;;;;;;4989242;28;20199;-53
2022/09/29 11:10:30;;;;;;;4.73;3.80;;;;;;;;;;4998888;28;20171;-53
2022/09/29 11:12:59;;;;;;;4.77;4.03;;;;;;;;;;4992380;28;20233;-54
2022/09/29 11:15:27;;;;;;;6.23;4.80;;;;;;;;;;4989005;28;20183;-54
2022/09/29 11:17:54;;;;;;;4.97;4.23;;;;;;;;;;4988853;28;20507;-53
2022/09/29 11:20:22;;;;;;;5.00;4.03;;;;;;;;;;4990293;28;20658;-53
2022/09/29 11:22:49;;;;;;;4.97;4.00;;;;;;;;;;4990340;28;20187;-54
2022/09/29 11:25:34;;;;;;;10.83;4.13;;;;;;;;;;4989466;28;20202;-53
2022/09/29 11:28:18;;;;;;;6.80;3.83;;;;;;;;;;5002028;28;20293;-54
2022/09/29 11:30:57;;;;;;;3.70;3.33;;;;;;;;;;5001297;28;20194;-53
2022/09/29 11:33:24;;;;;;;6.03;3.60;;;;;;;;;;5009208;28;20185;-54
2022/09/29 11:35:53;;;;;;;5.13;2.90;;;;;;;;;;4999406;28;20292;-52
2022/09/29 11:38:25;;;;;;;4.80;3.30;;;;;;;;;;4986496;28;20215;-53
2022/09/29 11:40:54;;;;;;;3.33;3.03;;;;;;;;;;4973106;28;21038;-53
2022/09/29 11:43:21;;;;;;;4.33;3.03;;;;;;;;;;5007616;28;20179;-52
2022/09/29 11:45:56;;;;;;;4.90;3.63;;;;;;;;;;4990463;28;20182;-52
2022/09/29 11:48:23;;;;;;;4.87;3.77;;;;;;;;;;4988848;28;20226;-53
2022/09/29 11:50:57;;;;;;;5.97;3.47;;;;;;;;;;4997127;28;20279;-53
2022/09/29 11:53:23;;;;;;;6.53;3.57;;;;;;;;;;4989636;28;20163;-52
2022/09/29 11:56:30;;;;;;;6.13;3.43;;;;;;;;;;4998689;28;20183;-53
2022/09/29 11:59:05;;;;;;;5.00;2.53;;;;;;;;;;4943365;28;20185;-52
2022/09/29 12:01:40;;;;;;;3.83;2.63;;;;;;;;;;4930240;29;20229;-53
2022/09/29 12:04:17;;;;;;;5.57;2.73;;;;;;;;;;4966439;28;20206;-53
2022/09/29 12:06:47;;;;;;;2.87;2.67;;;;;;;;;;4992839;28;20174;-52
2022/09/29 12:09:26;;;;;;;3.47;2.57;;;;;;;;;;4994815;28;20281;-53
2022/09/29 12:11:58;;;;;;;3.10;2.80;;;;;;;;;;4986990;28;20189;-52
2022/09/29 12:14:32;;;;;;;2.90;2.63;;;;;;;;;;4987949;28;20183;-52
2022/09/29 12:17:08;;;;;;;4.50;3.37;;;;;;;;;;4988122;28;20203;-52
2022/09/29 12:19:37;;;;;;;4.17;2.67;;;;;;;;;;4987842;28;20187;-52
2022/09/29 12:22:04;;;;;;;3.27;2.27;;;;;;;;;;4990442;28;20605;-53
2022/09/29 12:24:30;;;;;;;1.97;1.77;;;;;;;;;;4999438;28;20190;-53
2022/09/29 12:26:57;;;;;;;2.30;2.10;;;;;;;;;;4992846;28;20670;-53
2022/09/29 12:29:44;;;;;;;1.77;1.67;;;;;;;;;;4979317;28;20207;-52
2022/09/29 12:32:29;;;;;;;2.23;1.73;;;;;;;;;;4987611;28;20330;-53
2022/09/29 12:35:07;;;;;;;5.90;3.53;;;;;;;;;;4984317;28;20175;-53
2022/09/29 12:37:48;;;;;;;3.87;2.87;;;;;;;;;;4988542;28;20746;-52
2022/09/29 12:40:17;;;;;;;3.70;2.90;;;;;;;;;;4987761;28;20183;-53
2022/09/29 12:43:02;;;;;;;4.23;3.37;;;;;;;;;;4994246;28;20181;-53
2022/09/29 12:45:35;;;;;;;3.17;2.87;;;;;;;;;;4993479;28;20175;-53
2022/09/29 12:48:11;;;;;;;3.80;3.30;;;;;;;;;;4986526;28;20242;-53
2022/09/29 12:50:44;;;;;;;5.27;3.17;;;;;;;;;;4987637;28;20318;-53
2022/09/29 12:53:26;;;;;;;4.70;3.70;;;;;;;;;;4984216;28;20270;-53
2022/09/29 12:56:04;;;;;;;4.07;3.40;;;;;;;;;;5001887;28;20167;-53
2022/09/29 12:58:45;;;;;;;3.20;2.90;;;;;;;;;;4971899;28;20210;-53
2022/09/29 13:01:11;;;;;;;3.73;2.80;;;;;;;;;;4987503;28;20191;-52
2022/09/29 13:03:45;;;;;;;4.03;3.20;;;;;;;;;;4986290;28;20184;-53
2022/09/29 13:06:11;;;;;;;4.60;2.90;;;;;;;;;;4988566;28;20188;-54
2022/09/29 13:08:40;;;;;;;5.43;2.83;;;;;;;;;;4997839;28;20207;-53
2022/09/29 13:11:23;;;;;;;4.13;2.77;;;;;;;;;;4988480;28;20653;-53
2022/09/29 13:14:05;;;;;;;5.73;3.03;;;;;;;;;;4990530;28;20190;-53
2022/09/29 13:16:36;;;;;;;3.40;2.70;;;;;;;;;;4992051;28;20171;-53
2022/09/29 13:19:12;;;;;;;3.33;2.70;;;;;;;;;;4987767;28;20188;-53
2022/09/29 13:21:41;;;;;;;3.53;3.00;;;;;;;;;;4999363;28;20233;-53
2022/09/29 13:24:25;;;;;;;4.53;2.57;;;;;;;;;;4986128;28;20662;-53
2022/09/29 13:27:06;;;;;;;2.60;2.40;;;;;;;;;;4986101;28;20191;-53
2022/09/29 13:29:34;;;;;;;3.80;2.47;;;;;;;;;;4989123;28;20396;-53
2022/09/29 13:32:02;;;;;;;3.80;2.77;;;;;;;;;;4988383;28;20181;-53
2022/09/29 13:34:30;;;;;;;6.77;3.00;;;;;;;;;;5001627;28;20651;-54
2022/09/29 13:37:06;;;;;;;3.63;2.60;;;;;;;;;;5009029;28;20860;-53
2022/09/29 13:39:34;;;;;;;3.37;2.40;;;;;;;;;;4983073;28;20560;-53
2022/09/29 13:42:20;;;;;;;3.17;2.43;;;;;;;;;;4986948;28;20167;-53
2022/09/29 13:45:06;;;;;;;3.97;2.53;;;;;;;;;;4986625;28;20486;-53
2022/09/29 13:47:33;;;;;;;3.43;3.13;;;;;;;;;;4986388;28;20215;-53
2022/09/29 13:50:22;;;;;;;3.33;3.03;;;;;;;;;;4986789;28;20187;-53
2022/09/29 13:52:49;;;;;;;2.97;2.67;;;;;;;;;;5005113;28;20190;-53
2022/09/29 13:55:33;;;;;;;3.87;2.60;;;;;;;;;;4992044;28;20618;-52
2022/09/29 13:58:00;;;;;;;5.60;3.07;;;;;;;;;;4988514;28;20190;-52
2022/09/29 14:00:26;;;;;;;5.13;2.97;;;;;;;;;;4987902;28;20566;-53
2022/09/29 14:03:03;;;;;;;3.73;2.73;;;;;;;;;;4985563;28;20186;-54
2022/09/29 14:05:29;;;;;;;3.47;2.37;;;;;;;;;;4991510;28;20521;-54
2022/09/29 14:07:59;;;;;;;3.33;2.20;;;;;;;;;;4983750;28;20210;-53
2022/09/29 14:10:29;;;;;;;3.23;2.47;;;;;;;;;;4987883;28;20234;-52
2022/09/29 14:13:03;;;;;;;2.37;2.17;;;;;;;;;;4971697;28;20642;-53
2022/09/29 14:15:35;;;;;;;3.37;2.63;;;;;;;;;;4984624;28;20177;-53
2022/09/29 14:18:05;;;;;;;4.13;2.47;;;;;;;;;;4981096;28;20646;-53
2022/09/29 14:20:33;;;;;;;3.13;2.67;;;;;;;;;;4983634;28;20187;-53
2022/09/29 14:23:01;;;;;;;2.73;2.53;;;;;;;;;;4980216;28;20183;-54
2022/09/29 14:25:29;;;;;;;3.40;2.60;;;;;;;;;;4987076;28;20274;-53
2022/09/29 14:28:00;;;;;;;3.93;2.87;;;;;;;;;;4981469;28;20255;-53
2022/09/29 14:30:35;;;;;;;3.63;2.43;;;;;;;;;;4987623;28;20542;-53
2022/09/29 14:33:10;;;;;;;7.03;2.57;;;;;;;;;;4984461;28;20248;-53
2022/09/29 14:35:38;;;;;;;3.47;2.53;;;;;;;;;;4975279;28;20239;-53
2022/09/29 14:38:08;;;;;;;3.77;2.40;;;;;;;;;;4972923;28;20243;-54
2022/09/29 14:40:34;;;;;;;6.03;3.70;;;;;;;;;;4984811;28;20573;-54
2022/09/29 14:43:12;;;;;;;3.30;3.00;;;;;;;;;;4983293;28;20546;-53
2022/09/29 14:52:11;;;;;;;2.20;1.90;;;;;;;;;;4930520;29;20244;-52
2022/09/29 14:54:46;;;;;;;3.73;3.27;;;;;;;;;;4969936;28;20202;-53
2022/09/29 14:57:33;;;;;;;2.90;2.00;;;;;;;;;;4975843;28;20196;-53
2022/09/29 15:00:05;;;;;;;2.10;1.90;;;;;;;;;;4988528;28;20187;-53
2022/09/29 15:02:35;;;;;;;2.93;1.90;;;;;;;;;;4988558;28;20609;-53
2022/09/29 15:05:11;;;;;;;2.00;1.80;;;;;;;;;;4974951;28;20223;-54
2022/09/29 15:07:40;;;;;;;3.40;2.10;;;;;;;;;;4971455;28;20187;-53
2022/09/29 15:10:19;;;;;;;4.00;2.70;;;;;;;;;;4990528;28;20651;-53